sensor_id;sensor_type;location;lat;lon;timestamp;P1;durP1;ratioP1;P2;durP2;ratioP2
5060;SDS011;2549;52.128;21.068;2024-01-25T00:00:53;5.47;;;2.00;;
5060;SDS011;2549;52.128;21.068;2024-01-25T00:03:20;8.70;;;1.77;;
5060;SDS011;2549;52.128;21.068;2024-01-25T00:05:47;4.20;;;1.50;;
5060;SDS011;2549;52.128;21.068;2024-01-25T00:08:14;2.35;;;1.15;;
5060;SDS011;2549;52.128;21.068;2024-01-25T00:10:41;4.32;;;1.55;;
5060;SDS011;2549;52.128;21.068;2024-01-25T00:13:08;4.22;;;1.45;;
5060;SDS011;2549;52.128;21.068;2024-01-25T00:15:35;2.70;;;1.13;;
5060;SDS011;2549;52.128;21.068;2024-01-25T00:18:02;3.50;;;1.08;;
5060;SDS011;2549;52.128;21.068;2024-01-25T00:20:29;5.35;;;1.45;;
5060;SDS011;2549;52.128;21.068;2024-01-25T00:22:56;1.95;;;1.17;;
5060;SDS011;2549;52.128;21.068;2024-01-25T00:25:23;2.38;;;0.68;;
5060;SDS011;2549;52.128;21.068;2024-01-25T00:27:50;5.38;;;1.30;;
5060;SDS011;2549;52.128;21.068;2024-01-25T00:30:17;2.97;;;1.40;;
5060;SDS011;2549;52.128;21.068;2024-01-25T00:32:44;2.30;;;1.30;;
5060;SDS011;2549;52.128;21.068;2024-01-25T00:35:11;1.43;;;0.67;;
5060;SDS011;2549;52.128;21.068;2024-01-25T00:37:40;3.30;;;1.13;;
5060;SDS011;2549;52.128;21.068;2024-01-25T00:40:07;3.60;;;1.37;;
5060;SDS011;2549;52.128;21.068;2024-01-25T00:42:37;2.80;;;1.25;;
5060;SDS011;2549;52.128;21.068;2024-01-25T00:45:10;3.30;;;1.85;;
5060;SDS011;2549;52.128;21.068;2024-01-25T00:47:38;3.25;;;1.05;;
5060;SDS011;2549;52.128;21.068;2024-01-25T00:50:05;8.25;;;1.65;;
5060;SDS011;2549;52.128;21.068;2024-01-25T00:52:33;2.35;;;1.10;;
5060;SDS011;2549;52.128;21.068;2024-01-25T00:55:00;5.35;;;1.38;;
5060;SDS011;2549;52.128;21.068;2024-01-25T00:57:27;3.60;;;1.05;;
5060;SDS011;2549;52.128;21.068;2024-01-25T00:59:55;3.85;;;1.13;;
5060;SDS011;2549;52.128;21.068;2024-01-25T01:02:22;6.32;;;2.22;;
5060;SDS011;2549;52.128;21.068;2024-01-25T01:04:49;4.30;;;1.52;;
5060;SDS011;2549;52.128;21.068;2024-01-25T01:07:16;5.63;;;1.63;;
5060;SDS011;2549;52.128;21.068;2024-01-25T01:09:44;14.52;;;1.88;;
5060;SDS011;2549;52.128;21.068;2024-01-25T01:12:11;8.20;;;1.80;;
5060;SDS011;2549;52.128;21.068;2024-01-25T01:14:37;4.40;;;1.20;;
5060;SDS011;2549;52.128;21.068;2024-01-25T01:17:04;5.38;;;1.63;;
5060;SDS011;2549;52.128;21.068;2024-01-25T01:19:32;6.53;;;1.80;;
5060;SDS011;2549;52.128;21.068;2024-01-25T01:21:59;6.65;;;1.63;;
5060;SDS011;2549;52.128;21.068;2024-01-25T01:24:26;4.70;;;1.52;;
5060;SDS011;2549;52.128;21.068;2024-01-25T01:26:53;11.05;;;2.00;;
5060;SDS011;2549;52.128;21.068;2024-01-25T01:29:20;3.92;;;1.70;;
5060;SDS011;2549;52.128;21.068;2024-01-25T01:31:46;8.23;;;2.33;;
5060;SDS011;2549;52.128;21.068;2024-01-25T01:34:13;11.00;;;1.92;;
5060;SDS011;2549;52.128;21.068;2024-01-25T01:36:40;4.43;;;1.58;;
5060;SDS011;2549;52.128;21.068;2024-01-25T01:39:08;11.75;;;1.65;;
5060;SDS011;2549;52.128;21.068;2024-01-25T01:41:35;7.97;;;1.90;;
5060;SDS011;2549;52.128;21.068;2024-01-25T01:44:02;14.40;;;2.00;;
5060;SDS011;2549;52.128;21.068;2024-01-25T01:46:36;3.95;;;1.65;;
5060;SDS011;2549;52.128;21.068;2024-01-25T01:49:15;7.60;;;1.95;;
5060;SDS011;2549;52.128;21.068;2024-01-25T01:51:42;9.95;;;1.85;;
5060;SDS011;2549;52.128;21.068;2024-01-25T01:54:10;9.77;;;3.00;;
5060;SDS011;2549;52.128;21.068;2024-01-25T01:56:37;5.43;;;1.98;;
5060;SDS011;2549;52.128;21.068;2024-01-25T01:59:08;8.20;;;1.65;;
5060;SDS011;2549;52.128;21.068;2024-01-25T02:01:36;7.97;;;1.90;;
5060;SDS011;2549;52.128;21.068;2024-01-25T02:04:04;6.43;;;1.55;;
5060;SDS011;2549;52.128;21.068;2024-01-25T02:06:32;19.88;;;2.40;;
5060;SDS011;2549;52.128;21.068;2024-01-25T02:08:59;18.40;;;2.55;;
5060;SDS011;2549;52.128;21.068;2024-01-25T02:11:27;9.77;;;1.77;;
5060;SDS011;2549;52.128;21.068;2024-01-25T02:13:55;4.78;;;1.75;;
5060;SDS011;2549;52.128;21.068;2024-01-25T02:16:22;12.60;;;2.45;;
5060;SDS011;2549;52.128;21.068;2024-01-25T02:18:50;10.93;;;2.03;;
5060;SDS011;2549;52.128;21.068;2024-01-25T02:21:17;15.70;;;2.25;;
5060;SDS011;2549;52.128;21.068;2024-01-25T02:23:44;13.02;;;2.95;;
5060;SDS011;2549;52.128;21.068;2024-01-25T02:26:11;6.70;;;2.15;;
5060;SDS011;2549;52.128;21.068;2024-01-25T02:28:38;9.80;;;2.53;;
5060;SDS011;2549;52.128;21.068;2024-01-25T02:31:05;16.67;;;2.25;;
5060;SDS011;2549;52.128;21.068;2024-01-25T02:33:32;10.60;;;2.20;;
5060;SDS011;2549;52.128;21.068;2024-01-25T02:36:00;10.07;;;2.47;;
5060;SDS011;2549;52.128;21.068;2024-01-25T02:38:26;8.02;;;2.00;;
5060;SDS011;2549;52.128;21.068;2024-01-25T02:40:53;10.77;;;2.28;;
5060;SDS011;2549;52.128;21.068;2024-01-25T02:43:20;13.65;;;1.98;;
5060;SDS011;2549;52.128;21.068;2024-01-25T02:45:48;8.93;;;2.08;;
5060;SDS011;2549;52.128;21.068;2024-01-25T02:48:17;10.50;;;2.33;;
5060;SDS011;2549;52.128;21.068;2024-01-25T02:50:44;4.72;;;2.13;;
5060;SDS011;2549;52.128;21.068;2024-01-25T02:53:11;8.15;;;1.75;;
5060;SDS011;2549;52.128;21.068;2024-01-25T02:55:38;7.03;;;2.42;;
5060;SDS011;2549;52.128;21.068;2024-01-25T02:58:05;8.30;;;2.72;;
5060;SDS011;2549;52.128;21.068;2024-01-25T03:00:32;11.45;;;1.75;;
5060;SDS011;2549;52.128;21.068;2024-01-25T03:02:59;8.27;;;2.05;;
5060;SDS011;2549;52.128;21.068;2024-01-25T03:05:26;13.18;;;2.45;;
5060;SDS011;2549;52.128;21.068;2024-01-25T03:07:53;10.27;;;1.80;;
5060;SDS011;2549;52.128;21.068;2024-01-25T03:10:20;8.65;;;2.72;;
5060;SDS011;2549;52.128;21.068;2024-01-25T03:12:47;10.57;;;1.73;;
5060;SDS011;2549;52.128;21.068;2024-01-25T03:15:14;8.13;;;2.10;;
5060;SDS011;2549;52.128;21.068;2024-01-25T03:17:41;13.07;;;2.08;;
5060;SDS011;2549;52.128;21.068;2024-01-25T03:20:08;11.00;;;1.80;;
5060;SDS011;2549;52.128;21.068;2024-01-25T03:22:36;12.32;;;2.08;;
5060;SDS011;2549;52.128;21.068;2024-01-25T03:25:03;13.73;;;2.58;;
5060;SDS011;2549;52.128;21.068;2024-01-25T03:27:30;6.57;;;1.83;;
5060;SDS011;2549;52.128;21.068;2024-01-25T03:29:57;8.13;;;2.10;;
5060;SDS011;2549;52.128;21.068;2024-01-25T03:32:25;10.57;;;1.42;;
5060;SDS011;2549;52.128;21.068;2024-01-25T03:34:52;5.43;;;2.00;;
5060;SDS011;2549;52.128;21.068;2024-01-25T03:37:19;5.60;;;1.25;;
5060;SDS011;2549;52.128;21.068;2024-01-25T03:39:46;1.95;;;1.33;;
5060;SDS011;2549;52.128;21.068;2024-01-25T03:42:13;8.48;;;1.23;;
5060;SDS011;2549;52.128;21.068;2024-01-25T03:44:40;7.22;;;2.70;;
5060;SDS011;2549;52.128;21.068;2024-01-25T03:47:08;5.88;;;1.40;;
5060;SDS011;2549;52.128;21.068;2024-01-25T03:49:35;11.38;;;1.65;;
5060;SDS011;2549;52.128;21.068;2024-01-25T03:52:03;5.18;;;1.83;;
5060;SDS011;2549;52.128;21.068;2024-01-25T03:54:31;7.82;;;2.60;;
5060;SDS011;2549;52.128;21.068;2024-01-25T03:56:58;5.70;;;1.85;;
5060;SDS011;2549;52.128;21.068;2024-01-25T03:59:24;6.40;;;1.88;;
5060;SDS011;2549;52.128;21.068;2024-01-25T04:01:51;5.82;;;1.85;;
5060;SDS011;2549;52.128;21.068;2024-01-25T04:04:18;10.35;;;2.80;;
5060;SDS011;2549;52.128;21.068;2024-01-25T04:06:46;7.75;;;1.83;;
5060;SDS011;2549;52.128;21.068;2024-01-25T04:09:13;10.48;;;2.13;;
5060;SDS011;2549;52.128;21.068;2024-01-25T04:11:44;11.55;;;2.90;;
5060;SDS011;2549;52.128;21.068;2024-01-25T04:14:11;10.80;;;2.28;;
5060;SDS011;2549;52.128;21.068;2024-01-25T04:16:38;6.82;;;1.95;;
5060;SDS011;2549;52.128;21.068;2024-01-25T04:19:05;19.38;;;2.20;;
5060;SDS011;2549;52.128;21.068;2024-01-25T04:21:33;14.95;;;2.25;;
5060;SDS011;2549;52.128;21.068;2024-01-25T04:24:03;14.70;;;2.70;;
5060;SDS011;2549;52.128;21.068;2024-01-25T04:26:30;13.65;;;2.42;;
5060;SDS011;2549;52.128;21.068;2024-01-25T04:28:57;6.53;;;1.90;;
5060;SDS011;2549;52.128;21.068;2024-01-25T04:31:24;8.27;;;2.28;;
5060;SDS011;2549;52.128;21.068;2024-01-25T04:33:51;5.18;;;1.52;;
5060;SDS011;2549;52.128;21.068;2024-01-25T04:36:18;6.80;;;1.98;;
5060;SDS011;2549;52.128;21.068;2024-01-25T04:38:45;10.50;;;1.92;;
5060;SDS011;2549;52.128;21.068;2024-01-25T04:41:12;8.80;;;2.10;;
5060;SDS011;2549;52.128;21.068;2024-01-25T04:43:39;10.25;;;1.60;;
5060;SDS011;2549;52.128;21.068;2024-01-25T04:46:06;10.00;;;2.70;;
5060;SDS011;2549;52.128;21.068;2024-01-25T04:48:33;14.52;;;2.63;;
5060;SDS011;2549;52.128;21.068;2024-01-25T04:51:01;13.48;;;2.38;;
5060;SDS011;2549;52.128;21.068;2024-01-25T04:53:28;13.48;;;2.30;;
5060;SDS011;2549;52.128;21.068;2024-01-25T04:55:55;6.70;;;2.42;;
5060;SDS011;2549;52.128;21.068;2024-01-25T04:58:23;9.95;;;2.45;;
5060;SDS011;2549;52.128;21.068;2024-01-25T05:00:50;4.82;;;1.27;;
5060;SDS011;2549;52.128;21.068;2024-01-25T05:03:19;3.95;;;1.70;;
5060;SDS011;2549;52.128;21.068;2024-01-25T05:05:46;4.00;;;1.80;;
5060;SDS011;2549;52.128;21.068;2024-01-25T05:08:13;15.23;;;3.00;;
5060;SDS011;2549;52.128;21.068;2024-01-25T05:10:40;5.18;;;1.63;;
5060;SDS011;2549;52.128;21.068;2024-01-25T05:13:08;3.70;;;1.65;;
5060;SDS011;2549;52.128;21.068;2024-01-25T05:15:35;9.82;;;1.77;;
5060;SDS011;2549;52.128;21.068;2024-01-25T05:18:03;8.35;;;2.03;;
5060;SDS011;2549;52.128;21.068;2024-01-25T05:20:30;10.52;;;2.75;;
5060;SDS011;2549;52.128;21.068;2024-01-25T05:23:02;6.43;;;1.30;;
5060;SDS011;2549;52.128;21.068;2024-01-25T05:25:29;9.20;;;1.48;;
5060;SDS011;2549;52.128;21.068;2024-01-25T05:27:57;2.50;;;1.40;;
5060;SDS011;2549;52.128;21.068;2024-01-25T05:30:24;11.75;;;1.55;;
5060;SDS011;2549;52.128;21.068;2024-01-25T05:32:51;4.50;;;1.45;;
5060;SDS011;2549;52.128;21.068;2024-01-25T05:35:21;8.30;;;2.05;;
5060;SDS011;2549;52.128;21.068;2024-01-25T05:37:48;8.95;;;2.00;;
5060;SDS011;2549;52.128;21.068;2024-01-25T05:40:16;9.20;;;1.65;;
5060;SDS011;2549;52.128;21.068;2024-01-25T05:42:43;10.02;;;2.00;;
5060;SDS011;2549;52.128;21.068;2024-01-25T05:45:11;8.98;;;1.85;;
5060;SDS011;2549;52.128;21.068;2024-01-25T05:47:38;7.43;;;1.83;;
5060;SDS011;2549;52.128;21.068;2024-01-25T05:50:05;7.05;;;1.40;;
5060;SDS011;2549;52.128;21.068;2024-01-25T05:52:33;6.88;;;2.38;;
5060;SDS011;2549;52.128;21.068;2024-01-25T05:55:03;7.20;;;1.92;;
5060;SDS011;2549;52.128;21.068;2024-01-25T05:57:31;6.18;;;2.20;;
5060;SDS011;2549;52.128;21.068;2024-01-25T05:59:59;4.88;;;1.60;;
5060;SDS011;2549;52.128;21.068;2024-01-25T06:02:26;9.07;;;2.20;;
5060;SDS011;2549;52.128;21.068;2024-01-25T06:04:53;14.45;;;1.98;;
5060;SDS011;2549;52.128;21.068;2024-01-25T06:07:20;8.93;;;2.35;;
5060;SDS011;2549;52.128;21.068;2024-01-25T06:09:48;15.07;;;2.25;;
5060;SDS011;2549;52.128;21.068;2024-01-25T06:12:15;14.02;;;2.22;;
5060;SDS011;2549;52.128;21.068;2024-01-25T06:14:42;8.88;;;1.52;;
5060;SDS011;2549;52.128;21.068;2024-01-25T06:17:08;4.30;;;2.58;;
5060;SDS011;2549;52.128;21.068;2024-01-25T06:19:35;8.30;;;1.80;;
5060;SDS011;2549;52.128;21.068;2024-01-25T06:22:02;9.82;;;2.38;;
5060;SDS011;2549;52.128;21.068;2024-01-25T06:24:29;6.53;;;2.33;;
5060;SDS011;2549;52.128;21.068;2024-01-25T06:26:56;6.78;;;1.45;;
5060;SDS011;2549;52.128;21.068;2024-01-25T06:29:23;10.27;;;2.13;;
5060;SDS011;2549;52.128;21.068;2024-01-25T06:31:50;6.93;;;2.17;;
5060;SDS011;2549;52.128;21.068;2024-01-25T06:34:17;5.40;;;1.70;;
5060;SDS011;2549;52.128;21.068;2024-01-25T06:36:44;5.45;;;1.83;;
5060;SDS011;2549;52.128;21.068;2024-01-25T06:39:12;8.90;;;2.70;;
5060;SDS011;2549;52.128;21.068;2024-01-25T06:41:38;9.77;;;1.70;;
5060;SDS011;2549;52.128;21.068;2024-01-25T06:44:05;8.48;;;1.80;;
5060;SDS011;2549;52.128;21.068;2024-01-25T06:46:32;7.30;;;1.63;;
5060;SDS011;2549;52.128;21.068;2024-01-25T06:48:59;11.05;;;1.98;;
5060;SDS011;2549;52.128;21.068;2024-01-25T06:51:26;9.50;;;1.90;;
5060;SDS011;2549;52.128;21.068;2024-01-25T06:53:53;11.75;;;2.00;;
5060;SDS011;2549;52.128;21.068;2024-01-25T06:56:20;11.30;;;2.35;;
5060;SDS011;2549;52.128;21.068;2024-01-25T06:58:47;10.13;;;2.53;;
5060;SDS011;2549;52.128;21.068;2024-01-25T07:01:19;6.70;;;1.85;;
5060;SDS011;2549;52.128;21.068;2024-01-25T07:03:48;8.15;;;1.73;;
5060;SDS011;2549;52.128;21.068;2024-01-25T07:06:18;9.07;;;1.50;;
5060;SDS011;2549;52.128;21.068;2024-01-25T07:08:46;5.68;;;1.60;;
5060;SDS011;2549;52.128;21.068;2024-01-25T07:11:13;11.30;;;2.45;;
5060;SDS011;2549;52.128;21.068;2024-01-25T07:13:43;13.90;;;2.72;;
5060;SDS011;2549;52.128;21.068;2024-01-25T07:16:09;8.75;;;2.05;;
5060;SDS011;2549;52.128;21.068;2024-01-25T07:18:37;9.93;;;2.30;;
5060;SDS011;2549;52.128;21.068;2024-01-25T07:21:04;11.50;;;2.47;;
5060;SDS011;2549;52.128;21.068;2024-01-25T07:23:32;7.68;;;2.00;;
5060;SDS011;2549;52.128;21.068;2024-01-25T07:26:00;10.18;;;1.83;;
5060;SDS011;2549;52.128;21.068;2024-01-25T07:28:27;7.72;;;2.30;;
5060;SDS011;2549;52.128;21.068;2024-01-25T07:30:54;9.18;;;1.90;;
5060;SDS011;2549;52.128;21.068;2024-01-25T07:33:21;9.90;;;2.67;;
5060;SDS011;2549;52.128;21.068;2024-01-25T07:35:48;6.32;;;1.85;;
5060;SDS011;2549;52.128;21.068;2024-01-25T07:38:15;8.43;;;1.33;;
5060;SDS011;2549;52.128;21.068;2024-01-25T07:40:43;18.83;;;1.75;;
5060;SDS011;2549;52.128;21.068;2024-01-25T07:43:13;5.72;;;1.77;;
5060;SDS011;2549;52.128;21.068;2024-01-25T07:45:40;9.15;;;1.63;;
5060;SDS011;2549;52.128;21.068;2024-01-25T07:48:07;7.30;;;1.75;;
5060;SDS011;2549;52.128;21.068;2024-01-25T07:50:41;3.95;;;0.90;;
5060;SDS011;2549;52.128;21.068;2024-01-25T07:53:08;6.25;;;1.70;;
5060;SDS011;2549;52.128;21.068;2024-01-25T07:55:35;5.18;;;1.73;;
5060;SDS011;2549;52.128;21.068;2024-01-25T07:58:02;10.95;;;1.85;;
5060;SDS011;2549;52.128;21.068;2024-01-25T08:00:30;6.95;;;1.85;;
5060;SDS011;2549;52.128;21.068;2024-01-25T08:02:57;13.65;;;1.70;;
5060;SDS011;2549;52.128;21.068;2024-01-25T08:05:24;3.78;;;1.08;;
5060;SDS011;2549;52.128;21.068;2024-01-25T08:08:06;6.75;;;2.25;;
5060;SDS011;2549;52.128;21.068;2024-01-25T08:10:33;3.75;;;1.60;;
5060;SDS011;2549;52.128;21.068;2024-01-25T08:13:00;6.88;;;1.02;;
5060;SDS011;2549;52.128;21.068;2024-01-25T08:15:33;7.15;;;1.58;;
5060;SDS011;2549;52.128;21.068;2024-01-25T08:18:00;3.92;;;1.10;;
5060;SDS011;2549;52.128;21.068;2024-01-25T08:20:28;9.45;;;1.63;;
5060;SDS011;2549;52.128;21.068;2024-01-25T08:22:55;5.30;;;1.48;;
5060;SDS011;2549;52.128;21.068;2024-01-25T08:25:22;7.18;;;1.60;;
5060;SDS011;2549;52.128;21.068;2024-01-25T08:27:50;7.75;;;1.70;;
5060;SDS011;2549;52.128;21.068;2024-01-25T08:30:17;13.93;;;2.20;;
5060;SDS011;2549;52.128;21.068;2024-01-25T08:32:44;9.15;;;2.05;;
5060;SDS011;2549;52.128;21.068;2024-01-25T08:35:11;5.63;;;1.60;;
5060;SDS011;2549;52.128;21.068;2024-01-25T08:37:38;9.38;;;2.15;;
5060;SDS011;2549;52.128;21.068;2024-01-25T08:40:06;7.35;;;1.42;;
5060;SDS011;2549;52.128;21.068;2024-01-25T08:42:35;5.78;;;1.80;;
5060;SDS011;2549;52.128;21.068;2024-01-25T08:45:02;5.35;;;1.70;;
5060;SDS011;2549;52.128;21.068;2024-01-25T08:47:31;7.00;;;1.40;;
5060;SDS011;2549;52.128;21.068;2024-01-25T08:49:58;8.80;;;1.20;;
5060;SDS011;2549;52.128;21.068;2024-01-25T08:52:25;2.55;;;1.52;;
5060;SDS011;2549;52.128;21.068;2024-01-25T08:54:52;2.00;;;0.85;;
5060;SDS011;2549;52.128;21.068;2024-01-25T08:57:19;1.35;;;1.25;;
5060;SDS011;2549;52.128;21.068;2024-01-25T08:59:46;4.05;;;1.60;;
5060;SDS011;2549;52.128;21.068;2024-01-25T09:02:13;1.95;;;1.27;;
5060;SDS011;2549;52.128;21.068;2024-01-25T09:04:40;3.53;;;1.23;;
5060;SDS011;2549;52.128;21.068;2024-01-25T09:07:09;3.30;;;1.48;;
5060;SDS011;2549;52.128;21.068;2024-01-25T09:09:37;1.02;;;0.88;;
5060;SDS011;2549;52.128;21.068;2024-01-25T09:12:06;2.47;;;1.35;;
5060;SDS011;2549;52.128;21.068;2024-01-25T09:14:37;3.03;;;1.40;;
5060;SDS011;2549;52.128;21.068;2024-01-25T09:17:04;5.18;;;0.95;;
5060;SDS011;2549;52.128;21.068;2024-01-25T09:19:31;1.80;;;1.17;;
5060;SDS011;2549;52.128;21.068;2024-01-25T09:21:58;2.25;;;1.30;;
5060;SDS011;2549;52.128;21.068;2024-01-25T09:24:30;3.83;;;1.60;;
5060;SDS011;2549;52.128;21.068;2024-01-25T09:26:57;2.95;;;1.33;;
5060;SDS011;2549;52.128;21.068;2024-01-25T09:29:25;1.65;;;0.98;;
5060;SDS011;2549;52.128;21.068;2024-01-25T09:31:53;2.42;;;1.20;;
5060;SDS011;2549;52.128;21.068;2024-01-25T09:34:20;1.50;;;1.10;;
5060;SDS011;2549;52.128;21.068;2024-01-25T09:36:48;1.30;;;1.17;;
5060;SDS011;2549;52.128;21.068;2024-01-25T09:39:15;3.63;;;1.52;;
5060;SDS011;2549;52.128;21.068;2024-01-25T09:41:42;2.72;;;1.15;;
5060;SDS011;2549;52.128;21.068;2024-01-25T09:44:11;2.47;;;0.90;;
5060;SDS011;2549;52.128;21.068;2024-01-25T09:46:38;1.98;;;0.85;;
5060;SDS011;2549;52.128;21.068;2024-01-25T09:49:07;1.00;;;1.00;;
5060;SDS011;2549;52.128;21.068;2024-01-25T09:51:36;4.28;;;1.30;;
5060;SDS011;2549;52.128;21.068;2024-01-25T09:54:05;1.88;;;1.13;;
5060;SDS011;2549;52.128;21.068;2024-01-25T09:56:32;3.13;;;1.52;;
5060;SDS011;2549;52.128;21.068;2024-01-25T09:59:00;1.38;;;1.00;;
5060;SDS011;2549;52.128;21.068;2024-01-25T10:01:28;1.45;;;1.05;;
5060;SDS011;2549;52.128;21.068;2024-01-25T10:03:55;2.35;;;1.20;;
5060;SDS011;2549;52.128;21.068;2024-01-25T10:06:23;3.88;;;1.52;;
5060;SDS011;2549;52.128;21.068;2024-01-25T10:08:51;1.67;;;1.25;;
5060;SDS011;2549;52.128;21.068;2024-01-25T10:11:19;1.10;;;1.10;;
5060;SDS011;2549;52.128;21.068;2024-01-25T10:13:48;0.90;;;0.90;;
5060;SDS011;2549;52.128;21.068;2024-01-25T10:16:20;1.58;;;1.13;;
5060;SDS011;2549;52.128;21.068;2024-01-25T10:18:47;1.80;;;1.27;;
5060;SDS011;2549;52.128;21.068;2024-01-25T10:21:16;2.15;;;0.95;;
5060;SDS011;2549;52.128;21.068;2024-01-25T10:23:45;1.20;;;1.10;;
5060;SDS011;2549;52.128;21.068;2024-01-25T10:26:14;0.80;;;0.80;;
5060;SDS011;2549;52.128;21.068;2024-01-25T10:28:42;3.22;;;1.00;;
5060;SDS011;2549;52.128;21.068;2024-01-25T10:31:16;6.93;;;1.55;;
5060;SDS011;2549;52.128;21.068;2024-01-25T10:33:43;5.45;;;1.40;;
5060;SDS011;2549;52.128;21.068;2024-01-25T10:36:13;1.47;;;0.90;;
5060;SDS011;2549;52.128;21.068;2024-01-25T10:38:40;2.00;;;0.93;;
5060;SDS011;2549;52.128;21.068;2024-01-25T10:41:10;1.30;;;1.20;;
5060;SDS011;2549;52.128;21.068;2024-01-25T10:43:41;3.28;;;1.45;;
5060;SDS011;2549;52.128;21.068;2024-01-25T10:46:08;3.30;;;1.20;;
5060;SDS011;2549;52.128;21.068;2024-01-25T10:48:35;4.63;;;1.38;;
5060;SDS011;2549;52.128;21.068;2024-01-25T10:51:03;0.93;;;0.93;;
5060;SDS011;2549;52.128;21.068;2024-01-25T10:53:32;1.85;;;0.93;;
5060;SDS011;2549;52.128;21.068;2024-01-25T10:56:01;1.85;;;1.17;;
5060;SDS011;2549;52.128;21.068;2024-01-25T10:58:31;3.65;;;1.10;;
5060;SDS011;2549;52.128;21.068;2024-01-25T11:01:07;1.05;;;0.93;;
5060;SDS011;2549;52.128;21.068;2024-01-25T11:03:41;1.80;;;0.80;;
5060;SDS011;2549;52.128;21.068;2024-01-25T11:06:09;1.23;;;1.05;;
5060;SDS011;2549;52.128;21.068;2024-01-25T11:08:38;2.55;;;1.10;;
5060;SDS011;2549;52.128;21.068;2024-01-25T11:11:06;1.75;;;1.17;;
5060;SDS011;2549;52.128;21.068;2024-01-25T11:13:40;0.90;;;0.90;;
5060;SDS011;2549;52.128;21.068;2024-01-25T11:16:15;0.75;;;0.75;;
5060;SDS011;2549;52.128;21.068;2024-01-25T11:18:47;1.10;;;1.00;;
5060;SDS011;2549;52.128;21.068;2024-01-25T11:21:28;2.67;;;1.10;;
5060;SDS011;2549;52.128;21.068;2024-01-25T11:24:04;1.50;;;1.08;;
5060;SDS011;2549;52.128;21.068;2024-01-25T11:26:34;0.90;;;0.90;;
5060;SDS011;2549;52.128;21.068;2024-01-25T11:29:01;1.40;;;1.25;;
5060;SDS011;2549;52.128;21.068;2024-01-25T11:31:28;1.50;;;1.10;;
5060;SDS011;2549;52.128;21.068;2024-01-25T11:33:59;3.30;;;1.20;;
5060;SDS011;2549;52.128;21.068;2024-01-25T11:36:28;1.90;;;0.90;;
5060;SDS011;2549;52.128;21.068;2024-01-25T11:38:55;0.93;;;0.93;;
5060;SDS011;2549;52.128;21.068;2024-01-25T11:41:23;1.95;;;1.15;;
5060;SDS011;2549;52.128;21.068;2024-01-25T11:43:50;0.98;;;0.93;;
5060;SDS011;2549;52.128;21.068;2024-01-25T11:46:17;0.90;;;0.90;;
5060;SDS011;2549;52.128;21.068;2024-01-25T11:48:45;0.95;;;0.95;;
5060;SDS011;2549;52.128;21.068;2024-01-25T11:51:12;2.40;;;1.02;;
5060;SDS011;2549;52.128;21.068;2024-01-25T11:53:40;1.75;;;1.30;;
5060;SDS011;2549;52.128;21.068;2024-01-25T11:56:08;2.50;;;1.23;;
5060;SDS011;2549;52.128;21.068;2024-01-25T11:58:38;2.42;;;1.00;;
5060;SDS011;2549;52.128;21.068;2024-01-25T12:01:08;1.65;;;1.20;;
5060;SDS011;2549;52.128;21.068;2024-01-25T12:03:36;6.40;;;1.35;;
5060;SDS011;2549;52.128;21.068;2024-01-25T12:06:04;2.03;;;1.20;;
5060;SDS011;2549;52.128;21.068;2024-01-25T12:08:32;2.85;;;1.30;;
5060;SDS011;2549;52.128;21.068;2024-01-25T12:11:07;1.35;;;1.00;;
5060;SDS011;2549;52.128;21.068;2024-01-25T12:13:35;2.65;;;1.23;;
5060;SDS011;2549;52.128;21.068;2024-01-25T12:16:05;2.67;;;1.13;;
5060;SDS011;2549;52.128;21.068;2024-01-25T12:18:32;2.47;;;1.25;;
5060;SDS011;2549;52.128;21.068;2024-01-25T12:21:02;2.38;;;1.10;;
5060;SDS011;2549;52.128;21.068;2024-01-25T12:23:37;3.30;;;1.40;;
5060;SDS011;2549;52.128;21.068;2024-01-25T12:26:05;1.60;;;1.20;;
5060;SDS011;2549;52.128;21.068;2024-01-25T12:28:34;4.05;;;1.08;;
5060;SDS011;2549;52.128;21.068;2024-01-25T12:31:05;2.65;;;1.45;;
5060;SDS011;2549;52.128;21.068;2024-01-25T12:33:33;3.13;;;1.13;;
5060;SDS011;2549;52.128;21.068;2024-01-25T12:36:01;1.30;;;1.20;;
5060;SDS011;2549;52.128;21.068;2024-01-25T12:38:30;3.58;;;1.10;;
5060;SDS011;2549;52.128;21.068;2024-01-25T12:41:00;1.88;;;1.35;;
5060;SDS011;2549;52.128;21.068;2024-01-25T12:43:28;1.20;;;1.10;;
5060;SDS011;2549;52.128;21.068;2024-01-25T12:45:56;5.70;;;1.70;;
5060;SDS011;2549;52.128;21.068;2024-01-25T12:48:34;3.67;;;1.50;;
5060;SDS011;2549;52.128;21.068;2024-01-25T12:51:01;7.25;;;1.55;;
5060;SDS011;2549;52.128;21.068;2024-01-25T12:53:28;1.15;;;0.90;;
5060;SDS011;2549;52.128;21.068;2024-01-25T12:55:55;3.50;;;1.00;;
5060;SDS011;2549;52.128;21.068;2024-01-25T12:58:22;1.83;;;0.65;;
5060;SDS011;2549;52.128;21.068;2024-01-25T13:00:49;0.90;;;0.70;;
5060;SDS011;2549;52.128;21.068;2024-01-25T13:03:16;1.35;;;0.63;;
5060;SDS011;2549;52.128;21.068;2024-01-25T13:05:43;0.80;;;0.80;;
5060;SDS011;2549;52.128;21.068;2024-01-25T13:08:10;2.72;;;0.60;;
5060;SDS011;2549;52.128;21.068;2024-01-25T13:10:37;3.05;;;1.00;;
5060;SDS011;2549;52.128;21.068;2024-01-25T13:13:04;0.80;;;0.80;;
5060;SDS011;2549;52.128;21.068;2024-01-25T13:15:31;0.70;;;0.70;;
5060;SDS011;2549;52.128;21.068;2024-01-25T13:17:58;1.58;;;0.80;;
5060;SDS011;2549;52.128;21.068;2024-01-25T13:20:27;1.00;;;0.80;;
5060;SDS011;2549;52.128;21.068;2024-01-25T13:22:54;4.63;;;0.85;;
5060;SDS011;2549;52.128;21.068;2024-01-25T13:25:21;0.80;;;0.80;;
5060;SDS011;2549;52.128;21.068;2024-01-25T13:27:48;1.15;;;0.95;;
5060;SDS011;2549;52.128;21.068;2024-01-25T13:30:15;2.47;;;0.88;;
5060;SDS011;2549;52.128;21.068;2024-01-25T13:32:42;3.95;;;1.10;;
5060;SDS011;2549;52.128;21.068;2024-01-25T13:35:10;0.70;;;0.70;;
5060;SDS011;2549;52.128;21.068;2024-01-25T13:37:36;0.75;;;0.70;;
5060;SDS011;2549;52.128;21.068;2024-01-25T13:40:05;3.28;;;0.82;;
5060;SDS011;2549;52.128;21.068;2024-01-25T13:42:32;1.10;;;1.00;;
5060;SDS011;2549;52.128;21.068;2024-01-25T13:44:59;0.90;;;0.90;;
5060;SDS011;2549;52.128;21.068;2024-01-25T13:47:26;3.53;;;0.80;;
5060;SDS011;2549;52.128;21.068;2024-01-25T13:49:53;1.95;;;0.77;;
5060;SDS011;2549;52.128;21.068;2024-01-25T13:52:20;0.88;;;0.80;;
5060;SDS011;2549;52.128;21.068;2024-01-25T13:54:47;0.70;;;0.70;;
5060;SDS011;2549;52.128;21.068;2024-01-25T13:57:17;0.70;;;0.70;;
5060;SDS011;2549;52.128;21.068;2024-01-25T13:59:47;0.90;;;0.90;;
5060;SDS011;2549;52.128;21.068;2024-01-25T14:02:13;0.88;;;0.88;;
5060;SDS011;2549;52.128;21.068;2024-01-25T14:04:40;1.08;;;0.75;;
5060;SDS011;2549;52.128;21.068;2024-01-25T14:07:07;1.13;;;1.00;;
5060;SDS011;2549;52.128;21.068;2024-01-25T14:09:35;1.90;;;1.00;;
5060;SDS011;2549;52.128;21.068;2024-01-25T14:12:04;1.00;;;1.00;;
5060;SDS011;2549;52.128;21.068;2024-01-25T14:14:31;3.63;;;0.95;;
5060;SDS011;2549;52.128;21.068;2024-01-25T14:16:59;1.50;;;1.00;;
5060;SDS011;2549;52.128;21.068;2024-01-25T14:19:26;0.90;;;0.90;;
5060;SDS011;2549;52.128;21.068;2024-01-25T14:21:53;1.08;;;1.08;;
5060;SDS011;2549;52.128;21.068;2024-01-25T14:24:39;1.35;;;0.95;;
5060;SDS011;2549;52.128;21.068;2024-01-25T14:27:06;1.70;;;1.13;;
5060;SDS011;2549;52.128;21.068;2024-01-25T14:29:33;1.20;;;1.10;;
5060;SDS011;2549;52.128;21.068;2024-01-25T14:32:01;1.15;;;1.15;;
5060;SDS011;2549;52.128;21.068;2024-01-25T14:34:29;1.00;;;1.00;;
5060;SDS011;2549;52.128;21.068;2024-01-25T14:36:56;1.65;;;1.52;;
5060;SDS011;2549;52.128;21.068;2024-01-25T14:39:23;1.42;;;1.33;;
5060;SDS011;2549;52.128;21.068;2024-01-25T14:41:50;2.30;;;1.17;;
5060;SDS011;2549;52.128;21.068;2024-01-25T14:44:17;3.90;;;2.05;;
5060;SDS011;2549;52.128;21.068;2024-01-25T14:46:44;1.33;;;1.20;;
5060;SDS011;2549;52.128;21.068;2024-01-25T14:49:11;1.65;;;1.48;;
5060;SDS011;2549;52.128;21.068;2024-01-25T14:51:38;1.35;;;1.25;;
5060;SDS011;2549;52.128;21.068;2024-01-25T14:54:05;1.80;;;1.30;;
5060;SDS011;2549;52.128;21.068;2024-01-25T14:56:32;1.90;;;1.15;;
5060;SDS011;2549;52.128;21.068;2024-01-25T14:58:59;4.20;;;1.40;;
5060;SDS011;2549;52.128;21.068;2024-01-25T15:01:26;1.95;;;1.15;;
5060;SDS011;2549;52.128;21.068;2024-01-25T15:03:57;1.80;;;1.70;;